sensor_id;sensor_type;location;lat;lon;timestamp;temperature;humidity
54272;DHT22;40184;53.362;5.216;2023-01-15T00:01:27;8.10;99.90
54272;DHT22;40184;53.362;5.216;2023-01-15T00:03:54;7.60;99.90
54272;DHT22;40184;53.362;5.216;2023-01-15T00:06:22;7.90;99.90
54272;DHT22;40184;53.362;5.216;2023-01-15T00:08:49;8.20;99.90
54272;DHT22;40184;53.362;5.216;2023-01-15T00:11:15;8.10;99.90
54272;DHT22;40184;53.362;5.216;2023-01-15T00:13:41;8.20;99.90
54272;DHT22;40184;53.362;5.216;2023-01-15T00:16:13;7.50;99.90
54272;DHT22;40184;53.362;5.216;2023-01-15T00:18:39;8.10;99.90
54272;DHT22;40184;53.362;5.216;2023-01-15T00:21:06;7.50;99.90
54272;DHT22;40184;53.362;5.216;2023-01-15T00:23:33;8.00;99.90
54272;DHT22;40184;53.362;5.216;2023-01-15T00:26:19;7.70;99.90
54272;DHT22;40184;53.362;5.216;2023-01-15T00:29:04;7.60;99.90
54272;DHT22;40184;53.362;5.216;2023-01-15T00:31:31;8.20;99.90
54272;DHT22;40184;53.362;5.216;2023-01-15T00:33:57;8.00;99.90
54272;DHT22;40184;53.362;5.216;2023-01-15T00:36:23;8.10;99.90
54272;DHT22;40184;53.362;5.216;2023-01-15T00:38:50;7.70;99.90
54272;DHT22;40184;53.362;5.216;2023-01-15T00:41:16;7.90;99.90
54272;DHT22;40184;53.362;5.216;2023-01-15T00:43:41;7.90;99.90
54272;DHT22;40184;53.362;5.216;2023-01-15T00:46:07;7.60;99.90
54272;DHT22;40184;53.362;5.216;2023-01-15T00:48:36;7.60;99.90
54272;DHT22;40184;53.362;5.216;2023-01-15T00:51:03;7.90;99.90
54272;DHT22;40184;53.362;5.216;2023-01-15T00:53:29;7.80;99.90
54272;DHT22;40184;53.362;5.216;2023-01-15T00:55:55;8.10;99.90
54272;DHT22;40184;53.362;5.216;2023-01-15T00:58:22;8.20;99.90
54272;DHT22;40184;53.362;5.216;2023-01-15T01:00:57;7.90;99.90
54272;DHT22;40184;53.362;5.216;2023-01-15T01:03:24;8.10;99.90
54272;DHT22;40184;53.362;5.216;2023-01-15T01:05:49;7.70;99.90
54272;DHT22;40184;53.362;5.216;2023-01-15T01:08:15;8.10;99.90
54272;DHT22;40184;53.362;5.216;2023-01-15T01:10:42;7.70;99.90
54272;DHT22;40184;53.362;5.216;2023-01-15T01:13:08;7.90;99.90
54272;DHT22;40184;53.362;5.216;2023-01-15T01:15:35;7.90;99.90
54272;DHT22;40184;53.362;5.216;2023-01-15T01:18:01;8.10;99.90
54272;DHT22;40184;53.362;5.216;2023-01-15T01:20:27;7.50;99.90
54272;DHT22;40184;53.362;5.216;2023-01-15T01:22:52;7.90;99.90
54272;DHT22;40184;53.362;5.216;2023-01-15T01:25:18;8.00;99.90
54272;DHT22;40184;53.362;5.216;2023-01-15T01:27:45;7.60;99.90
54272;DHT22;40184;53.362;5.216;2023-01-15T01:30:11;7.90;99.90
54272;DHT22;40184;53.362;5.216;2023-01-15T01:32:38;8.00;99.90
54272;DHT22;40184;53.362;5.216;2023-01-15T01:35:03;8.00;99.90
54272;DHT22;40184;53.362;5.216;2023-01-15T01:37:29;8.20;99.90
54272;DHT22;40184;53.362;5.216;2023-01-15T01:39:55;8.20;99.90
54272;DHT22;40184;53.362;5.216;2023-01-15T01:42:21;8.00;99.90
54272;DHT22;40184;53.362;5.216;2023-01-15T01:47:19;7.90;99.90
54272;DHT22;40184;53.362;5.216;2023-01-15T01:49:50;7.90;99.90
54272;DHT22;40184;53.362;5.216;2023-01-15T01:52:24;8.10;99.90
54272;DHT22;40184;53.362;5.216;2023-01-15T01:54:51;8.10;99.90
54272;DHT22;40184;53.362;5.216;2023-01-15T01:57:19;7.60;99.90
54272;DHT22;40184;53.362;5.216;2023-01-15T01:59:46;7.90;99.90
54272;DHT22;40184;53.362;5.216;2023-01-15T02:02:13;7.60;99.90
54272;DHT22;40184;53.362;5.216;2023-01-15T02:04:40;7.90;99.90
54272;DHT22;40184;53.362;5.216;2023-01-15T02:07:06;8.10;99.90
54272;DHT22;40184;53.362;5.216;2023-01-15T02:09:31;7.90;99.90
54272;DHT22;40184;53.362;5.216;2023-01-15T02:12:16;8.00;99.90
54272;DHT22;40184;53.362;5.216;2023-01-15T02:17:32;8.00;99.90
54272;DHT22;40184;53.362;5.216;2023-01-15T02:20:28;7.40;99.90
54272;DHT22;40184;53.362;5.216;2023-01-15T02:30:46;7.70;99.90
54272;DHT22;40184;53.362;5.216;2023-01-15T02:33:20;7.60;99.90
54272;DHT22;40184;53.362;5.216;2023-01-15T02:35:51;7.40;99.90
54272;DHT22;40184;53.362;5.216;2023-01-15T02:38:20;7.40;99.90
54272;DHT22;40184;53.362;5.216;2023-01-15T02:40:47;7.90;99.90
54272;DHT22;40184;53.362;5.216;2023-01-15T02:43:15;7.40;99.90
54272;DHT22;40184;53.362;5.216;2023-01-15T02:45:44;7.90;99.90
54272;DHT22;40184;53.362;5.216;2023-01-15T02:48:17;7.80;99.90
54272;DHT22;40184;53.362;5.216;2023-01-15T02:50:48;7.30;99.90
54272;DHT22;40184;53.362;5.216;2023-01-15T02:53:19;7.70;99.90
54272;DHT22;40184;53.362;5.216;2023-01-15T02:55:50;7.80;99.90
54272;DHT22;40184;53.362;5.216;2023-01-15T02:58:20;7.20;99.90
54272;DHT22;40184;53.362;5.216;2023-01-15T03:00:48;7.30;99.90
54272;DHT22;40184;53.362;5.216;2023-01-15T03:06:18;7.40;99.90
54272;DHT22;40184;53.362;5.216;2023-01-15T03:08:46;7.20;99.90
54272;DHT22;40184;53.362;5.216;2023-01-15T03:11:17;7.70;99.90
54272;DHT22;40184;53.362;5.216;2023-01-15T03:13:50;7.70;99.90
54272;DHT22;40184;53.362;5.216;2023-01-15T03:16:34;7.60;99.90
54272;DHT22;40184;53.362;5.216;2023-01-15T03:24:48;7.10;99.90
54272;DHT22;40184;53.362;5.216;2023-01-15T03:27:15;7.30;99.90
54272;DHT22;40184;53.362;5.216;2023-01-15T03:29:45;7.30;99.90
54272;DHT22;40184;53.362;5.216;2023-01-15T03:32:11;7.30;99.90
54272;DHT22;40184;53.362;5.216;2023-01-15T03:34:45;7.60;99.90
54272;DHT22;40184;53.362;5.216;2023-01-15T03:37:12;7.30;99.90
54272;DHT22;40184;53.362;5.216;2023-01-15T03:39:39;7.10;99.90
54272;DHT22;40184;53.362;5.216;2023-01-15T03:45:01;7.50;99.90
54272;DHT22;40184;53.362;5.216;2023-01-15T03:47:41;7.20;99.90
54272;DHT22;40184;53.362;5.216;2023-01-15T03:50:27;7.00;99.90
54272;DHT22;40184;53.362;5.216;2023-01-15T03:58:10;7.50;99.90
54272;DHT22;40184;53.362;5.216;2023-01-15T04:00:50;7.10;99.90
54272;DHT22;40184;53.362;5.216;2023-01-15T04:03:18;7.00;99.90
54272;DHT22;40184;53.362;5.216;2023-01-15T04:05:46;7.10;99.90
54272;DHT22;40184;53.362;5.216;2023-01-15T04:08:13;7.50;99.90
54272;DHT22;40184;53.362;5.216;2023-01-15T04:10:53;7.40;99.90
54272;DHT22;40184;53.362;5.216;2023-01-15T04:13:19;7.30;99.90
54272;DHT22;40184;53.362;5.216;2023-01-15T04:15:45;7.40;99.90
54272;DHT22;40184;53.362;5.216;2023-01-15T04:18:10;7.20;99.90
54272;DHT22;40184;53.362;5.216;2023-01-15T04:20:36;6.90;99.90
54272;DHT22;40184;53.362;5.216;2023-01-15T04:23:02;7.10;99.90
54272;DHT22;40184;53.362;5.216;2023-01-15T04:25:27;7.30;99.90
54272;DHT22;40184;53.362;5.216;2023-01-15T04:27:53;7.20;99.90
54272;DHT22;40184;53.362;5.216;2023-01-15T04:30:20;6.90;99.90
54272;DHT22;40184;53.362;5.216;2023-01-15T04:32:49;7.30;99.90
54272;DHT22;40184;53.362;5.216;2023-01-15T04:35:15;7.30;99.90
54272;DHT22;40184;53.362;5.216;2023-01-15T04:37:41;7.30;99.90
54272;DHT22;40184;53.362;5.216;2023-01-15T04:40:07;7.00;99.90
54272;DHT22;40184;53.362;5.216;2023-01-15T04:42:33;7.00;99.90
54272;DHT22;40184;53.362;5.216;2023-01-15T04:45:17;6.90;99.90
54272;DHT22;40184;53.362;5.216;2023-01-15T04:47:43;7.00;99.90
54272;DHT22;40184;53.362;5.216;2023-01-15T04:50:09;7.00;99.90
54272;DHT22;40184;53.362;5.216;2023-01-15T04:52:36;7.10;99.90
54272;DHT22;40184;53.362;5.216;2023-01-15T04:55:03;7.30;99.90
54272;DHT22;40184;53.362;5.216;2023-01-15T04:57:29;7.40;99.90
54272;DHT22;40184;53.362;5.216;2023-01-15T04:59:54;7.10;99.90
54272;DHT22;40184;53.362;5.216;2023-01-15T05:02:20;7.30;99.90
54272;DHT22;40184;53.362;5.216;2023-01-15T05:04:46;6.90;99.90
54272;DHT22;40184;53.362;5.216;2023-01-15T05:07:11;7.40;99.90
54272;DHT22;40184;53.362;5.216;2023-01-15T05:09:37;7.30;99.90
54272;DHT22;40184;53.362;5.216;2023-01-15T05:12:03;7.00;99.90
54272;DHT22;40184;53.362;5.216;2023-01-15T05:14:29;7.10;99.90
54272;DHT22;40184;53.362;5.216;2023-01-15T05:16:55;7.10;99.90
54272;DHT22;40184;53.362;5.216;2023-01-15T05:19:20;6.80;99.90
54272;DHT22;40184;53.362;5.216;2023-01-15T05:21:46;7.10;99.90
54272;DHT22;40184;53.362;5.216;2023-01-15T05:24:14;6.90;99.90
54272;DHT22;40184;53.362;5.216;2023-01-15T05:26:41;6.90;99.90
54272;DHT22;40184;53.362;5.216;2023-01-15T05:29:09;7.20;99.90
54272;DHT22;40184;53.362;5.216;2023-01-15T05:31:35;6.80;99.90
54272;DHT22;40184;53.362;5.216;2023-01-15T05:34:01;7.20;99.90
54272;DHT22;40184;53.362;5.216;2023-01-15T05:36:29;7.10;99.90
54272;DHT22;40184;53.362;5.216;2023-01-15T05:38:56;6.80;99.90
54272;DHT22;40184;53.362;5.216;2023-01-15T05:41:24;7.00;99.90
54272;DHT22;40184;53.362;5.216;2023-01-15T05:44:10;6.70;99.90
54272;DHT22;40184;53.362;5.216;2023-01-15T05:46:37;6.70;99.90
54272;DHT22;40184;53.362;5.216;2023-01-15T05:49:06;7.20;99.90
54272;DHT22;40184;53.362;5.216;2023-01-15T05:51:34;6.70;99.90
54272;DHT22;40184;53.362;5.216;2023-01-15T05:54:00;6.70;99.90
54272;DHT22;40184;53.362;5.216;2023-01-15T05:56:26;6.70;99.90
54272;DHT22;40184;53.362;5.216;2023-01-15T05:58:52;6.70;99.90
54272;DHT22;40184;53.362;5.216;2023-01-15T06:01:18;6.80;99.90
54272;DHT22;40184;53.362;5.216;2023-01-15T06:03:44;6.70;99.90
54272;DHT22;40184;53.362;5.216;2023-01-15T06:06:16;6.80;99.90
54272;DHT22;40184;53.362;5.216;2023-01-15T06:08:42;6.80;99.90
54272;DHT22;40184;53.362;5.216;2023-01-15T06:11:08;6.60;99.90
54272;DHT22;40184;53.362;5.216;2023-01-15T06:13:35;7.00;99.90
54272;DHT22;40184;53.362;5.216;2023-01-15T06:16:02;6.90;99.90
54272;DHT22;40184;53.362;5.216;2023-01-15T06:18:27;7.20;99.90
54272;DHT22;40184;53.362;5.216;2023-01-15T06:20:53;7.20;99.90
54272;DHT22;40184;53.362;5.216;2023-01-15T06:23:19;7.20;99.90
54272;DHT22;40184;53.362;5.216;2023-01-15T06:25:44;6.80;99.90
54272;DHT22;40184;53.362;5.216;2023-01-15T06:28:12;6.90;99.90
54272;DHT22;40184;53.362;5.216;2023-01-15T06:30:38;6.80;99.90
54272;DHT22;40184;53.362;5.216;2023-01-15T06:33:05;6.80;99.90
54272;DHT22;40184;53.362;5.216;2023-01-15T06:35:32;7.20;99.90
54272;DHT22;40184;53.362;5.216;2023-01-15T06:37:57;7.20;99.90
54272;DHT22;40184;53.362;5.216;2023-01-15T06:40:23;7.20;99.90
54272;DHT22;40184;53.362;5.216;2023-01-15T06:42:51;7.00;99.90
54272;DHT22;40184;53.362;5.216;2023-01-15T06:45:37;7.10;99.90
54272;DHT22;40184;53.362;5.216;2023-01-15T06:48:25;7.00;99.90
54272;DHT22;40184;53.362;5.216;2023-01-15T06:50:51;6.70;99.90
54272;DHT22;40184;53.362;5.216;2023-01-15T06:53:18;7.00;99.90
54272;DHT22;40184;53.362;5.216;2023-01-15T06:55:44;6.90;99.90
54272;DHT22;40184;53.362;5.216;2023-01-15T06:58:10;6.90;99.90
54272;DHT22;40184;53.362;5.216;2023-01-15T07:00:35;7.10;99.90
54272;DHT22;40184;53.362;5.216;2023-01-15T07:03:02;6.70;99.90
54272;DHT22;40184;53.362;5.216;2023-01-15T07:05:29;6.70;99.90
54272;DHT22;40184;53.362;5.216;2023-01-15T07:07:56;6.70;99.90
54272;DHT22;40184;53.362;5.216;2023-01-15T07:10:21;6.80;99.90
54272;DHT22;40184;53.362;5.216;2023-01-15T07:12:47;6.70;99.90
54272;DHT22;40184;53.362;5.216;2023-01-15T07:15:13;6.80;99.90
54272;DHT22;40184;53.362;5.216;2023-01-15T07:17:38;6.60;99.90
54272;DHT22;40184;53.362;5.216;2023-01-15T07:20:05;7.10;99.90
54272;DHT22;40184;53.362;5.216;2023-01-15T07:22:31;7.10;99.90
54272;DHT22;40184;53.362;5.216;2023-01-15T07:24:57;7.10;99.90
54272;DHT22;40184;53.362;5.216;2023-01-15T07:27:22;6.70;99.90
54272;DHT22;40184;53.362;5.216;2023-01-15T07:29:48;6.70;99.90
54272;DHT22;40184;53.362;5.216;2023-01-15T07:32:16;6.70;99.90
54272;DHT22;40184;53.362;5.216;2023-01-15T07:34:42;7.00;99.90
54272;DHT22;40184;53.362;5.216;2023-01-15T07:37:07;7.00;99.90
54272;DHT22;40184;53.362;5.216;2023-01-15T07:39:33;6.90;99.90
54272;DHT22;40184;53.362;5.216;2023-01-15T07:41:59;7.00;99.90
54272;DHT22;40184;53.362;5.216;2023-01-15T07:44:43;6.60;99.90
54272;DHT22;40184;53.362;5.216;2023-01-15T07:47:27;7.00;99.90
54272;DHT22;40184;53.362;5.216;2023-01-15T07:50:14;6.60;99.90
54272;DHT22;40184;53.362;5.216;2023-01-15T07:52:40;6.70;99.90
54272;DHT22;40184;53.362;5.216;2023-01-15T07:55:06;6.60;99.90
54272;DHT22;40184;53.362;5.216;2023-01-15T07:57:33;6.70;99.90
54272;DHT22;40184;53.362;5.216;2023-01-15T07:59:59;6.60;99.90
54272;DHT22;40184;53.362;5.216;2023-01-15T08:02:25;7.10;99.90
54272;DHT22;40184;53.362;5.216;2023-01-15T08:04:51;6.60;99.90
54272;DHT22;40184;53.362;5.216;2023-01-15T08:07:17;7.10;99.90
54272;DHT22;40184;53.362;5.216;2023-01-15T08:09:43;6.80;99.90
54272;DHT22;40184;53.362;5.216;2023-01-15T08:12:10;6.90;99.90
54272;DHT22;40184;53.362;5.216;2023-01-15T08:14:54;6.60;99.90
54272;DHT22;40184;53.362;5.216;2023-01-15T08:17:40;7.10;99.90
54272;DHT22;40184;53.362;5.216;2023-01-15T08:20:13;6.60;99.90
54272;DHT22;40184;53.362;5.216;2023-01-15T08:22:40;7.00;99.90
54272;DHT22;40184;53.362;5.216;2023-01-15T08:25:07;7.00;99.90
54272;DHT22;40184;53.362;5.216;2023-01-15T08:27:34;6.80;99.90
54272;DHT22;40184;53.362;5.216;2023-01-15T08:29:59;6.70;99.90
54272;DHT22;40184;53.362;5.216;2023-01-15T08:32:25;6.90;99.90
54272;DHT22;40184;53.362;5.216;2023-01-15T08:34:50;7.10;99.90
54272;DHT22;40184;53.362;5.216;2023-01-15T08:37:16;6.70;99.90
54272;DHT22;40184;53.362;5.216;2023-01-15T08:39:42;7.20;99.90
54272;DHT22;40184;53.362;5.216;2023-01-15T08:42:07;7.00;99.90
54272;DHT22;40184;53.362;5.216;2023-01-15T08:44:33;7.20;99.90
54272;DHT22;40184;53.362;5.216;2023-01-15T08:46:59;6.70;99.90
54272;DHT22;40184;53.362;5.216;2023-01-15T08:49:25;6.90;99.90
54272;DHT22;40184;53.362;5.216;2023-01-15T08:51:50;7.10;99.90
54272;DHT22;40184;53.362;5.216;2023-01-15T08:54:18;7.20;99.90
54272;DHT22;40184;53.362;5.216;2023-01-15T08:56:45;7.10;99.90
54272;DHT22;40184;53.362;5.216;2023-01-15T08:59:11;7.00;99.90
54272;DHT22;40184;53.362;5.216;2023-01-15T09:01:37;7.10;99.90
54272;DHT22;40184;53.362;5.216;2023-01-15T09:04:03;7.40;99.90
54272;DHT22;40184;53.362;5.216;2023-01-15T09:06:31;7.50;99.90
54272;DHT22;40184;53.362;5.216;2023-01-15T09:08:58;7.20;99.90
54272;DHT22;40184;53.362;5.216;2023-01-15T09:11:24;7.30;99.90
54272;DHT22;40184;53.362;5.216;2023-01-15T09:13:50;7.30;99.90
54272;DHT22;40184;53.362;5.216;2023-01-15T09:16:16;7.50;99.90
54272;DHT22;40184;53.362;5.216;2023-01-15T09:18:42;7.40;99.90
54272;DHT22;40184;53.362;5.216;2023-01-15T09:21:09;7.10;99.90
54272;DHT22;40184;53.362;5.216;2023-01-15T09:23:35;7.50;99.90
54272;DHT22;40184;53.362;5.216;2023-01-15T09:26:03;7.60;99.90
54272;DHT22;40184;53.362;5.216;2023-01-15T09:28:31;7.60;99.90
54272;DHT22;40184;53.362;5.216;2023-01-15T09:30:56;7.40;99.90
54272;DHT22;40184;53.362;5.216;2023-01-15T09:33:22;7.50;99.90
54272;DHT22;40184;53.362;5.216;2023-01-15T09:35:48;7.60;99.90
54272;DHT22;40184;53.362;5.216;2023-01-15T09:38:16;7.70;99.90
54272;DHT22;40184;53.362;5.216;2023-01-15T09:40:57;7.40;99.90
54272;DHT22;40184;53.362;5.216;2023-01-15T09:43:40;7.40;99.90
54272;DHT22;40184;53.362;5.216;2023-01-15T09:48:56;7.40;99.90
54272;DHT22;40184;53.362;5.216;2023-01-15T09:56:57;7.80;99.90
54272;DHT22;40184;53.362;5.216;2023-01-15T09:59:33;7.90;99.90
54272;DHT22;40184;53.362;5.216;2023-01-15T10:02:04;7.60;99.90
54272;DHT22;40184;53.362;5.216;2023-01-15T10:04:42;7.90;99.90
54272;DHT22;40184;53.362;5.216;2023-01-15T10:10:02;8.00;99.90
54272;DHT22;40184;53.362;5.216;2023-01-15T10:12:29;7.90;99.90
54272;DHT22;40184;53.362;5.216;2023-01-15T10:17:44;7.80;99.90
54272;DHT22;40184;53.362;5.216;2023-01-15T10:20:17;7.60;99.90
54272;DHT22;40184;53.362;5.216;2023-01-15T10:25:49;7.60;99.90
54272;DHT22;40184;53.362;5.216;2023-01-15T10:28:28;7.40;99.90
54272;DHT22;40184;53.362;5.216;2023-01-15T10:30:55;7.70;99.90
54272;DHT22;40184;53.362;5.216;2023-01-15T10:33:46;7.50;99.90
54272;DHT22;40184;53.362;5.216;2023-01-15T10:38:58;7.40;99.90
54272;DHT22;40184;53.362;5.216;2023-01-15T10:44:47;7.00;99.90
54272;DHT22;40184;53.362;5.216;2023-01-15T10:47:19;7.50;99.90
54272;DHT22;40184;53.362;5.216;2023-01-15T10:49:48;7.10;99.90
54272;DHT22;40184;53.362;5.216;2023-01-15T10:52:34;7.60;99.90
54272;DHT22;40184;53.362;5.216;2023-01-15T11:00:16;7.40;99.90
54272;DHT22;40184;53.362;5.216;2023-01-15T11:02:59;7.40;99.90
54272;DHT22;40184;53.362;5.216;2023-01-15T11:05:26;7.20;99.90
54272;DHT22;40184;53.362;5.216;2023-01-15T11:07:52;7.30;99.90
54272;DHT22;40184;53.362;5.216;2023-01-15T11:10:21;7.80;99.90
54272;DHT22;40184;53.362;5.216;2023-01-15T11:12:55;7.20;99.90
54272;DHT22;40184;53.362;5.216;2023-01-15T11:15:44;7.60;99.90
54272;DHT22;40184;53.362;5.216;2023-01-15T11:18:35;7.70;99.90
54272;DHT22;40184;53.362;5.216;2023-01-15T11:21:22;7.20;99.90
54272;DHT22;40184;53.362;5.216;2023-01-15T11:23:50;6.90;99.90
54272;DHT22;40184;53.362;5.216;2023-01-15T11:26:28;7.50;99.90
54272;DHT22;40184;53.362;5.216;2023-01-15T11:28:55;7.50;99.90
54272;DHT22;40184;53.362;5.216;2023-01-15T11:31:33;7.40;99.90
54272;DHT22;40184;53.362;5.216;2023-01-15T11:34:02;7.30;99.90
54272;DHT22;40184;53.362;5.216;2023-01-15T11:36:30;7.10;99.90
54272;DHT22;40184;53.362;5.216;2023-01-15T11:38:56;7.20;99.90
54272;DHT22;40184;53.362;5.216;2023-01-15T11:41:32;6.80;99.90
54272;DHT22;40184;53.362;5.216;2023-01-15T11:44:19;6.80;99.90
54272;DHT22;40184;53.362;5.216;2023-01-15T11:47:10;6.80;99.90
54272;DHT22;40184;53.362;5.216;2023-01-15T11:49:55;7.30;99.90
54272;DHT22;40184;53.362;5.216;2023-01-15T11:52:46;6.80;99.90
54272;DHT22;40184;53.362;5.216;2023-01-15T11:55:19;7.00;99.90
54272;DHT22;40184;53.362;5.216;2023-01-15T11:57:46;7.20;99.90
54272;DHT22;40184;53.362;5.216;2023-01-15T12:00:28;6.70;99.90
54272;DHT22;40184;53.362;5.216;2023-01-15T12:02:59;7.00;99.90
54272;DHT22;40184;53.362;5.216;2023-01-15T12:05:34;6.90;99.90
54272;DHT22;40184;53.362;5.216;2023-01-15T12:08:13;7.10;99.90
54272;DHT22;40184;53.362;5.216;2023-01-15T12:11:13;7.10;99.90
54272;DHT22;40184;53.362;5.216;2023-01-15T12:13:56;7.10;99.90
54272;DHT22;40184;53.362;5.216;2023-01-15T12:19:39;7.20;99.90
54272;DHT22;40184;53.362;5.216;2023-01-15T12:30:44;7.10;99.90
54272;DHT22;40184;53.362;5.216;2023-01-15T12:41:33;7.00;99.90
54272;DHT22;40184;53.362;5.216;2023-01-15T12:44:38;6.90;99.90
54272;DHT22;40184;53.362;5.216;2023-01-15T12:50:33;7.20;99.90
54272;DHT22;40184;53.362;5.216;2023-01-15T12:53:09;6.90;99.90
54272;DHT22;40184;53.362;5.216;2023-01-15T12:55:44;6.80;99.90
54272;DHT22;40184;53.362;5.216;2023-01-15T13:01:33;7.30;99.90
54272;DHT22;40184;53.362;5.216;2023-01-15T13:04:07;7.60;99.90
54272;DHT22;40184;53.362;5.216;2023-01-15T13:06:37;7.50;99.90
54272;DHT22;40184;53.362;5.216;2023-01-15T13:11:59;7.30;99.90
54272;DHT22;40184;53.362;5.216;2023-01-15T13:14:25;7.10;99.90
54272;DHT22;40184;53.362;5.216;2023-01-15T13:17:12;7.70;99.90
54272;DHT22;40184;53.362;5.216;2023-01-15T13:20:00;7.50;99.90
54272;DHT22;40184;53.362;5.216;2023-01-15T13:22:30;7.20;99.90
54272;DHT22;40184;53.362;5.216;2023-01-15T13:28:00;7.50;99.90
54272;DHT22;40184;53.362;5.216;2023-01-15T13:33:31;7.30;99.90
54272;DHT22;40184;53.362;5.216;2023-01-15T13:38:42;7.60;99.90
54272;DHT22;40184;53.362;5.216;2023-01-15T13:41:11;7.70;99.90
54272;DHT22;40184;53.362;5.216;2023-01-15T13:44:02;7.90;99.90
54272;DHT22;40184;53.362;5.216;2023-01-15T13:46:28;7.70;99.90
54272;DHT22;40184;53.362;5.216;2023-01-15T13:48:54;7.70;99.90
54272;DHT22;40184;53.362;5.216;2023-01-15T13:51:38;7.70;99.90
54272;DHT22;40184;53.362;5.216;2023-01-15T13:54:17;8.10;99.90
54272;DHT22;40184;53.362;5.216;2023-01-15T13:56:44;7.80;99.90
54272;DHT22;40184;53.362;5.216;2023-01-15T13:59:42;7.70;99.90
54272;DHT22;40184;53.362;5.216;2023-01-15T14:04:55;7.70;99.90
54272;DHT22;40184;53.362;5.216;2023-01-15T14:07:33;8.00;99.90
54272;DHT22;40184;53.362;5.216;2023-01-15T14:10:07;8.10;99.90
54272;DHT22;40184;53.362;5.216;2023-01-15T14:12:40;7.50;99.90
54272;DHT22;40184;53.362;5.216;2023-01-15T14:15:29;7.90;99.90
54272;DHT22;40184;53.362;5.216;2023-01-15T14:34:24;7.40;99.90
54272;DHT22;40184;53.362;5.216;2023-01-15T14:36:53;7.80;99.90
54272;DHT22;40184;53.362;5.216;2023-01-15T14:39:32;7.90;99.90
54272;DHT22;40184;53.362;5.216;2023-01-15T14:44:55;7.60;99.90
54272;DHT22;40184;53.362;5.216;2023-01-15T14:47:29;7.70;99.90
54272;DHT22;40184;53.362;5.216;2023-01-15T14:50:20;7.90;99.90
54272;DHT22;40184;53.362;5.216;2023-01-15T14:52:47;7.80;99.90
54272;DHT22;40184;53.362;5.216;2023-01-15T14:55:14;7.40;99.90
54272;DHT22;40184;53.362;5.216;2023-01-15T14:57:50;7.40;99.90
54272;DHT22;40184;53.362;5.216;2023-01-15T15:00:18;7.50;99.90
54272;DHT22;40184;53.362;5.216;2023-01-15T15:02:46;7.40;99.90
54272;DHT22;40184;53.362;5.216;2023-01-15T15:05:15;7.10;99.90
54272;DHT22;40184;53.362;5.216;2023-01-15T15:07:44;7.30;99.90
54272;DHT22;40184;53.362;5.216;2023-01-15T15:15:42;7.30;99.90
54272;DHT22;40184;53.362;5.216;2023-01-15T15:18:30;7.30;99.90
54272;DHT22;40184;53.362;5.216;2023-01-15T15:26:31;7.30;99.90
54272;DHT22;40184;53.362;5.216;2023-01-15T15:31:34;7.40;99.90
54272;DHT22;40184;53.362;5.216;2023-01-15T15:34:00;7.40;99.90
54272;DHT22;40184;53.362;5.216;2023-01-15T15:36:29;7.50;99.90
54272;DHT22;40184;53.362;5.216;2023-01-15T15:38:59;7.60;99.90
54272;DHT22;40184;53.362;5.216;2023-01-15T15:41:30;7.30;99.90
54272;DHT22;40184;53.362;5.216;2023-01-15T15:44:21;7.50;99.90
54272;DHT22;40184;53.362;5.216;2023-01-15T15:47:22;7.10;99.90
54272;DHT22;40184;53.362;5.216;2023-01-15T15:50:27;7.30;99.90
54272;DHT22;40184;53.362;5.216;2023-01-15T15:52:55;7.60;99.90
54272;DHT22;40184;53.362;5.216;2023-01-15T15:55:25;7.40;99.90
54272;DHT22;40184;53.362;5.216;2023-01-15T15:57:59;7.70;99.90
54272;DHT22;40184;53.362;5.216;2023-01-15T16:00:32;7.30;99.90
54272;DHT22;40184;53.362;5.216;2023-01-15T16:03:05;7.80;99.90
54272;DHT22;40184;53.362;5.216;2023-01-15T16:05:32;7.70;99.90
54272;DHT22;40184;53.362;5.216;2023-01-15T16:08:19;7.40;99.90
54272;DHT22;40184;53.362;5.216;2023-01-15T16:10:53;7.10;99.90
54272;DHT22;40184;53.362;5.216;2023-01-15T16:13:30;7.70;99.90
54272;DHT22;40184;53.362;5.216;2023-01-15T16:15:59;7.50;99.90
54272;DHT22;40184;53.362;5.216;2023-01-15T16:18:30;7.00;99.90
54272;DHT22;40184;53.362;5.216;2023-01-15T16:20:57;7.20;99.90
54272;DHT22;40184;53.362;5.216;2023-01-15T16:23:25;7.10;99.90
54272;DHT22;40184;53.362;5.216;2023-01-15T16:28:33;7.30;99.90
54272;DHT22;40184;53.362;5.216;2023-01-15T16:31:01;7.20;99.90
54272;DHT22;40184;53.362;5.216;2023-01-15T16:33:27;7.60;99.90
54272;DHT22;40184;53.362;5.216;2023-01-15T16:36:00;7.20;99.90
54272;DHT22;40184;53.362;5.216;2023-01-15T16:38:31;7.40;99.90
54272;DHT22;40184;53.362;5.216;2023-01-15T16:40:58;7.20;99.90
54272;DHT22;40184;53.362;5.216;2023-01-15T16:43:25;7.60;99.90
54272;DHT22;40184;53.362;5.216;2023-01-15T16:46:27;7.30;99.90
54272;DHT22;40184;53.362;5.216;2023-01-15T16:48:47;7.60;99.90
54272;DHT22;40184;53.362;5.216;2023-01-15T16:51:30;7.00;99.90
54272;DHT22;40184;53.362;5.216;2023-01-15T16:53:59;7.30;99.90
54272;DHT22;40184;53.362;5.216;2023-01-15T16:59:00;7.60;99.90
54272;DHT22;40184;53.362;5.216;2023-01-15T17:01:40;7.10;99.90
54272;DHT22;40184;53.362;5.216;2023-01-15T17:04:29;7.60;99.90
54272;DHT22;40184;53.362;5.216;2023-01-15T17:07:23;7.20;99.90
54272;DHT22;40184;53.362;5.216;2023-01-15T17:09:52;7.60;99.90
54272;DHT22;40184;53.362;5.216;2023-01-15T17:17:41;7.30;99.90
54272;DHT22;40184;53.362;5.216;2023-01-15T17:20:09;7.50;99.90
54272;DHT22;40184;53.362;5.216;2023-01-15T17:22:36;7.20;99.90
54272;DHT22;40184;53.362;5.216;2023-01-15T17:25:19;7.30;99.90
54272;DHT22;40184;53.362;5.216;2023-01-15T17:27:45;6.90;99.90
54272;DHT22;40184;53.362;5.216;2023-01-15T17:30:14;7.50;99.90
54272;DHT22;40184;53.362;5.216;2023-01-15T17:32:40;6.90;99.90
54272;DHT22;40184;53.362;5.216;2023-01-15T17:35:30;7.20;99.90
54272;DHT22;40184;53.362;5.216;2023-01-15T17:37:55;7.50;99.90
54272;DHT22;40184;53.362;5.216;2023-01-15T17:40:22;6.90;99.90
54272;DHT22;40184;53.362;5.216;2023-01-15T17:42:48;6.80;99.90
54272;DHT22;40184;53.362;5.216;2023-01-15T17:45:32;7.10;99.90
54272;DHT22;40184;53.362;5.216;2023-01-15T17:47:58;7.10;99.90
54272;DHT22;40184;53.362;5.216;2023-01-15T17:50:26;7.30;99.90
54272;DHT22;40184;53.362;5.216;2023-01-15T17:52:53;7.50;99.90
54272;DHT22;40184;53.362;5.216;2023-01-15T17:55:20;6.90;99.90
54272;DHT22;40184;53.362;5.216;2023-01-15T17:58:05;7.10;99.90
54272;DHT22;40184;53.362;5.216;2023-01-15T18:00:51;7.40;99.90
54272;DHT22;40184;53.362;5.216;2023-01-15T18:03:38;7.00;99.90
54272;DHT22;40184;53.362;5.216;2023-01-15T18:06:25;7.30;99.90
54272;DHT22;40184;53.362;5.216;2023-01-15T18:08:56;7.20;99.90
54272;DHT22;40184;53.362;5.216;2023-01-15T18:11:23;7.00;99.90
54272;DHT22;40184;53.362;5.216;2023-01-15T18:13:48;7.20;99.90
54272;DHT22;40184;53.362;5.216;2023-01-15T18:16:14;7.30;99.90
54272;DHT22;40184;53.362;5.216;2023-01-15T18:18:41;7.20;99.90
54272;DHT22;40184;53.362;5.216;2023-01-15T18:21:07;6.70;99.90
54272;DHT22;40184;53.362;5.216;2023-01-15T18:23:33;7.30;99.90
54272;DHT22;40184;53.362;5.216;2023-01-15T18:26:04;7.10;99.90
54272;DHT22;40184;53.362;5.216;2023-01-15T18:28:31;7.10;99.90
54272;DHT22;40184;53.362;5.216;2023-01-15T18:30:57;7.20;99.90